Time;durP1;ratioP1;P1;durP2;ratioP2;P2;SDS_P1;SDS_P2;PMS_P1;PMS_P2;Temp;Humidity;BMP_temperature;BMP_pressure;BME280_temperature;BME280_humidity;BME280_pressure;Samples;Min_cycle;Max_cycle;Signal;HPM_P1;HPM_P2
2023/11/11 00:01:37;;;;;;;1.75;1.60;;;15.70;68.40;;;;;;5133256;27;20177;-67
2023/11/11 00:04:02;;;;;;;1.35;1.25;;;15.60;68.30;;;;;;5133680;27;20168;-66
2023/11/11 00:06:28;;;;;;;1.50;1.40;;;15.60;68.30;;;;;;5133199;27;20208;-66
2023/11/11 00:08:53;;;;;;;1.55;1.45;;;15.60;68.30;;;;;;5133075;27;20176;-67
2023/11/11 00:11:20;;;;;;;1.85;1.65;;;15.60;68.30;;;;;;5133519;27;20257;-67
2023/11/11 00:13:45;;;;;;;1.95;1.80;;;15.60;68.40;;;;;;5134076;28;20265;-67
2023/11/11 00:16:11;;;;;;;2.88;1.98;;;15.60;68.30;;;;;;5132992;28;20631;-66
2023/11/11 00:18:37;;;;;;;1.73;1.63;;;15.60;68.30;;;;;;5133643;28;20168;-67
2023/11/11 00:21:03;;;;;;;1.58;1.40;;;15.60;68.40;;;;;;5133505;28;20181;-66
2023/11/11 00:23:30;;;;;;;1.48;1.38;;;15.60;68.30;;;;;;5134053;28;20534;-67
2023/11/11 00:25:56;;;;;;;1.50;1.30;;;15.60;68.40;;;;;;5133566;28;20204;-67
2023/11/11 00:28:22;;;;;;;1.73;1.50;;;15.60;68.40;;;;;;5133191;28;20971;-66
2023/11/11 00:30:47;;;;;;;1.85;1.48;;;15.60;68.40;;;;;;5133643;28;20516;-66
2023/11/11 00:33:13;;;;;;;1.98;1.75;;;15.50;68.40;;;;;;5133166;28;20173;-67
2023/11/11 00:35:38;;;;;;;1.50;1.40;;;15.50;68.40;;;;;;5133022;28;20187;-67
2023/11/11 00:38:04;;;;;;;1.75;1.60;;;15.50;68.40;;;;;;5133271;28;20172;-67
2023/11/11 00:40:29;;;;;;;1.40;1.30;;;15.50;68.40;;;;;;5133608;28;20169;-67
2023/11/11 00:42:55;;;;;;;2.08;1.40;;;15.50;68.40;;;;;;5132999;28;20603;-67
2023/11/11 00:45:22;;;;;;;2.15;1.60;;;15.50;68.30;;;;;;5133001;28;20531;-66
2023/11/11 00:47:48;;;;;;;1.40;1.30;;;15.50;68.30;;;;;;5133336;28;20220;-66
2023/11/11 00:50:14;;;;;;;1.48;1.35;;;15.50;68.40;;;;;;5132547;28;20275;-67
2023/11/11 00:52:39;;;;;;;1.90;1.65;;;15.50;68.40;;;;;;5133520;28;20168;-67
2023/11/11 00:55:07;;;;;;;1.40;1.30;;;15.40;68.30;;;;;;5133241;28;20650;-67
2023/11/11 00:57:33;;;;;;;1.77;1.67;;;15.40;68.30;;;;;;5132684;28;20602;-68
2023/11/11 00:59:58;;;;;;;1.50;1.40;;;15.40;68.30;;;;;;5133142;28;20638;-67
2023/11/11 01:02:24;;;;;;;2.90;1.70;;;15.50;68.40;;;;;;5133282;28;20185;-66
2023/11/11 01:04:49;;;;;;;1.77;1.67;;;15.40;68.30;;;;;;5132871;28;20161;-66
2023/11/11 01:07:15;;;;;;;1.60;1.50;;;15.50;68.40;;;;;;5133186;28;20234;-67
2023/11/11 01:09:41;;;;;;;1.90;1.55;;;15.40;68.30;;;;;;5133416;28;20247;-67
2023/11/11 01:12:07;;;;;;;1.63;1.52;;;15.40;68.30;;;;;;5132389;28;20172;-67
2023/11/11 01:14:34;;;;;;;1.67;1.30;;;15.40;68.30;;;;;;5133307;28;20176;-67
2023/11/11 01:17:02;;;;;;;1.88;1.70;;;15.40;68.30;;;;;;5132733;28;20241;-67
2023/11/11 01:19:28;;;;;;;2.28;1.70;;;15.40;68.30;;;;;;5135673;27;20172;-67
2023/11/11 01:21:54;;;;;;;1.50;1.40;;;15.40;68.30;;;;;;5136934;27;20173;-67
2023/11/11 01:24:19;;;;;;;1.42;1.33;;;15.40;68.30;;;;;;5136043;27;20613;-68
2023/11/11 01:26:48;;;;;;;1.50;1.40;;;15.40;68.30;;;;;;5136840;27;20580;-67
2023/11/11 01:29:14;;;;;;;1.95;1.40;;;15.30;68.20;;;;;;5136409;27;20631;-67
2023/11/11 01:31:39;;;;;;;1.63;1.52;;;15.30;68.20;;;;;;5135970;27;20892;-67
2023/11/11 01:34:07;;;;;;;1.73;1.50;;;15.40;68.30;;;;;;5136618;27;20160;-67
2023/11/11 01:36:32;;;;;;;1.90;1.80;;;15.40;68.30;;;;;;5136743;27;20183;-68
2023/11/11 01:38:58;;;;;;;1.60;1.50;;;15.30;68.30;;;;;;5135823;27;20169;-67
2023/11/11 01:41:23;;;;;;;1.55;1.45;;;15.30;68.30;;;;;;5136501;27;20168;-67
2023/11/11 01:43:49;;;;;;;1.85;1.67;;;15.30;68.30;;;;;;5136445;27;20195;-67
2023/11/11 01:46:14;;;;;;;1.90;1.80;;;15.30;68.20;;;;;;5135287;27;20295;-66
2023/11/11 01:48:41;;;;;;;1.83;1.73;;;15.30;68.20;;;;;;5118052;27;20670;-67
2023/11/11 01:51:06;;;;;;;1.92;1.73;;;15.30;68.30;;;;;;5118148;27;20200;-66
2023/11/11 01:53:33;;;;;;;2.15;1.95;;;15.30;68.30;;;;;;5135699;27;20208;-68
2023/11/11 01:55:58;;;;;;;1.58;1.48;;;15.30;68.30;;;;;;5135990;27;20169;-68
2023/11/11 01:58:24;;;;;;;1.77;1.67;;;15.30;68.30;;;;;;5136192;27;20305;-67
2023/11/11 02:00:50;;;;;;;1.90;1.80;;;15.30;68.30;;;;;;5117175;27;20353;-67
2023/11/11 02:03:16;;;;;;;1.80;1.70;;;15.30;68.30;;;;;;5117845;27;20175;-66
2023/11/11 02:05:42;;;;;;;1.90;1.70;;;15.20;68.20;;;;;;5117647;27;20208;-67
2023/11/11 02:08:08;;;;;;;2.00;1.80;;;15.30;68.30;;;;;;5135074;27;20259;-67
2023/11/11 02:10:38;;;;;;;2.22;1.73;;;15.30;68.30;;;;;;5136055;27;20263;-68
2023/11/11 02:13:03;;;;;;;2.65;1.92;;;15.30;68.30;;;;;;5100533;27;20262;-68
2023/11/11 02:15:29;;;;;;;2.08;1.88;;;15.20;68.30;;;;;;5135128;27;20256;-67
2023/11/11 02:17:59;;;;;;;2.00;1.80;;;15.20;68.30;;;;;;5117795;27;20225;-67
2023/11/11 02:20:24;;;;;;;3.22;2.00;;;15.20;68.30;;;;;;5135988;27;20176;-68
2023/11/11 02:22:50;;;;;;;1.92;1.83;;;15.20;68.30;;;;;;5135176;27;20172;-67
2023/11/11 02:25:16;;;;;;;2.08;1.88;;;15.20;68.20;;;;;;5135460;27;20217;-68
2023/11/11 02:27:42;;;;;;;2.00;1.80;;;15.20;68.20;;;;;;5116714;27;20179;-67
2023/11/11 02:30:11;;;;;;;2.30;1.92;;;15.20;68.20;;;;;;5135110;27;20176;-67
2023/11/11 02:32:37;;;;;;;1.95;1.83;;;15.20;68.30;;;;;;5135904;27;20172;-67
2023/11/11 02:35:04;;;;;;;1.75;1.65;;;15.20;68.20;;;;;;5134596;27;20598;-68
2023/11/11 02:37:29;;;;;;;2.47;1.88;;;15.20;68.30;;;;;;5135738;27;20184;-67
2023/11/11 02:39:55;;;;;;;2.72;1.83;;;15.20;68.20;;;;;;5135597;27;20521;-66
2023/11/11 02:42:21;;;;;;;1.95;1.85;;;15.20;68.20;;;;;;5134323;27;20254;-67
2023/11/11 02:44:46;;;;;;;1.70;1.55;;;15.20;68.20;;;;;;5135839;27;20173;-66
2023/11/11 02:47:12;;;;;;;2.10;1.90;;;15.20;68.20;;;;;;5134735;27;20669;-67
2023/11/11 02:49:37;;;;;;;1.80;1.70;;;15.20;68.20;;;;;;5134366;27;20212;-67
2023/11/11 02:52:04;;;;;;;2.75;1.90;;;15.20;68.20;;;;;;5135072;27;20224;-67
2023/11/11 02:54:29;;;;;;;2.17;2.00;;;15.20;68.20;;;;;;5135127;27;20180;-68
2023/11/11 02:56:55;;;;;;;2.65;1.88;;;15.10;68.10;;;;;;5134383;27;20183;-68
2023/11/11 02:59:20;;;;;;;2.67;1.77;;;15.10;68.20;;;;;;5134894;27;20175;-68
2023/11/11 03:01:46;;;;;;;2.70;1.70;;;15.10;68.20;;;;;;5135121;27;20171;-67
2023/11/11 03:04:14;;;;;;;1.83;1.63;;;15.20;68.20;;;;;;5134145;27;20168;-67
2023/11/11 03:06:42;;;;;;;1.88;1.70;;;15.10;68.10;;;;;;5135009;27;20295;-66
2023/11/11 03:09:12;;;;;;;2.55;1.80;;;15.10;68.10;;;;;;5134592;27;20592;-67
2023/11/11 03:11:37;;;;;;;1.63;1.52;;;15.10;68.20;;;;;;5134078;27;20181;-67
2023/11/11 03:14:03;;;;;;;2.35;2.15;;;15.10;68.10;;;;;;5134647;27;20173;-67
2023/11/11 03:16:39;;;;;;;3.08;1.88;;;15.10;68.10;;;;;;5134858;27;20172;-66
2023/11/11 03:19:05;;;;;;;2.33;2.03;;;15.10;68.10;;;;;;5133679;27;20168;-67
2023/11/11 03:21:31;;;;;;;1.83;1.73;;;15.10;68.10;;;;;;5134725;27;20187;-67
2023/11/11 03:23:56;;;;;;;2.55;1.45;;;15.10;68.10;;;;;;5133949;27;20191;-66
2023/11/11 03:26:25;;;;;;;2.95;1.70;;;15.10;68.10;;;;;;5134577;27;20654;-66
2023/11/11 03:28:51;;;;;;;1.42;1.40;;;15.10;68.10;;;;;;5134605;27;20213;-67
2023/11/11 03:31:19;;;;;;;1.40;1.30;;;15.10;68.10;;;;;;5133551;27;20173;-67
2023/11/11 03:33:45;;;;;;;1.85;1.73;;;15.00;68.00;;;;;;5134491;27;20172;-68
2023/11/11 03:36:11;;;;;;;1.50;1.40;;;15.10;68.10;;;;;;5134043;27;20172;-68
2023/11/11 03:38:37;;;;;;;1.48;1.38;;;15.00;68.00;;;;;;5132906;27;20549;-67
2023/11/11 03:41:02;;;;;;;2.22;1.73;;;15.10;68.10;;;;;;5133583;27;20703;-67
2023/11/11 03:43:28;;;;;;;1.42;1.33;;;15.10;68.10;;;;;;5133811;27;20203;-66
2023/11/11 03:45:53;;;;;;;1.98;1.63;;;15.10;68.20;;;;;;5133471;27;20715;-67
2023/11/11 03:48:19;;;;;;;1.83;1.40;;;15.10;68.20;;;;;;5115127;27;20746;-66
2023/11/11 03:50:44;;;;;;;2.08;1.38;;;15.00;68.00;;;;;;5134058;27;20221;-67
2023/11/11 03:53:13;;;;;;;1.65;1.52;;;15.10;68.20;;;;;;5132890;27;20603;-67
2023/11/11 03:55:38;;;;;;;1.35;1.25;;;15.00;68.10;;;;;;5134148;27;20165;-68
2023/11/11 03:58:04;;;;;;;1.40;1.20;;;15.00;69.00;;;;;;5133804;27;20178;-68
2023/11/11 04:00:29;;;;;;;2.15;1.60;;;15.00;68.10;;;;;;5114889;27;20175;-67
2023/11/11 04:02:58;;;;;;;1.73;1.35;;;15.00;68.10;;;;;;5134148;27;20258;-67
2023/11/11 04:05:24;;;;;;;1.70;1.30;;;15.00;68.10;;;;;;5133887;27;20200;-67
2023/11/11 04:07:49;;;;;;;2.53;1.58;;;15.00;68.10;;;;;;5132994;27;20514;-67
2023/11/11 04:10:19;;;;;;;2.00;1.45;;;15.00;68.10;;;;;;5133690;27;20636;-67
2023/11/11 04:12:47;;;;;;;2.33;1.50;;;15.00;68.10;;;;;;5133970;27;20195;-67
2023/11/11 04:15:13;;;;;;;1.60;1.30;;;15.00;68.10;;;;;;5132766;28;20582;-69
2023/11/11 04:17:42;;;;;;;1.58;1.35;;;15.00;68.10;;;;;;5133890;28;20180;-67
2023/11/11 04:20:12;;;;;;;1.40;1.30;;;15.00;68.20;;;;;;5133031;28;20544;-68
2023/11/11 04:22:38;;;;;;;1.30;1.20;;;15.00;68.20;;;;;;5133820;28;20179;-68
2023/11/11 04:25:05;;;;;;;1.27;1.17;;;15.00;68.20;;;;;;5133606;28;20173;-67
2023/11/11 04:27:32;;;;;;;1.98;1.10;;;15.00;68.20;;;;;;5133150;28;20229;-68
2023/11/11 04:29:58;;;;;;;2.22;1.17;;;15.00;68.30;;;;;;5133576;28;20662;-67
2023/11/11 04:32:27;;;;;;;1.50;1.40;;;14.90;68.20;;;;;;5133691;28;20640;-67
2023/11/11 04:34:53;;;;;;;2.28;1.10;;;14.90;68.20;;;;;;5115343;28;20212;-68
2023/11/11 04:37:18;;;;;;;1.20;1.10;;;15.00;68.20;;;;;;5133237;28;20554;-68
2023/11/11 04:39:45;;;;;;;2.13;1.30;;;14.90;69.00;;;;;;5133643;28;20183;-68
2023/11/11 04:42:13;;;;;;;1.58;1.23;;;14.90;68.20;;;;;;5131921;28;20195;-67
2023/11/11 04:44:39;;;;;;;1.30;1.20;;;14.90;68.20;;;;;;5133510;28;20767;-67
2023/11/11 04:47:06;;;;;;;1.25;1.15;;;14.90;68.20;;;;;;5133069;28;20220;-66
2023/11/11 04:49:32;;;;;;;1.30;1.20;;;14.90;68.20;;;;;;5132509;28;20674;-67
2023/11/11 04:51:57;;;;;;;2.25;1.33;;;14.90;68.20;;;;;;5133406;28;20183;-67
2023/11/11 04:54:23;;;;;;;1.50;1.10;;;14.90;68.20;;;;;;5136202;27;20184;-68
2023/11/11 04:56:48;;;;;;;1.38;1.27;;;14.90;68.20;;;;;;5136575;27;20173;-68
2023/11/11 04:59:14;;;;;;;1.35;1.25;;;14.90;68.20;;;;;;5137141;27;20177;-67
2023/11/11 05:01:39;;;;;;;1.20;1.10;;;14.90;68.20;;;;;;5137187;27;20168;-67
2023/11/11 05:04:05;;;;;;;1.35;1.20;;;14.90;68.10;;;;;;5136218;27;20259;-67
2023/11/11 05:06:30;;;;;;;1.02;1.00;;;14.90;68.20;;;;;;5137267;27;20208;-67
2023/11/11 05:08:57;;;;;;;1.48;1.30;;;14.90;68.20;;;;;;5137413;27;20168;-67
2023/11/11 05:11:22;;;;;;;1.00;1.00;;;14.90;68.20;;;;;;5136571;27;20172;-67
2023/11/11 05:13:48;;;;;;;1.67;1.55;;;14.90;68.10;;;;;;5137207;27;20165;-67
2023/11/11 05:16:24;;;;;;;1.83;1.10;;;14.90;69.00;;;;;;5136867;27;20208;-66
2023/11/11 05:18:51;;;;;;;0.95;0.95;;;14.80;68.90;;;;;;5137205;27;20164;-67
2023/11/11 05:21:17;;;;;;;1.38;1.20;;;14.90;68.10;;;;;;5136813;27;20438;-67
2023/11/11 05:23:42;;;;;;;1.42;1.23;;;14.80;68.00;;;;;;5136381;27;20165;-67
2023/11/11 05:26:08;;;;;;;1.15;1.15;;;14.90;68.20;;;;;;5136555;27;20215;-67
2023/11/11 05:28:34;;;;;;;1.15;0.85;;;14.80;68.10;;;;;;5137031;27;20169;-67
2023/11/11 05:31:00;;;;;;;1.25;1.08;;;14.80;68.10;;;;;;5135829;27;20176;-67
2023/11/11 05:33:25;;;;;;;1.10;1.00;;;14.80;68.10;;;;;;5136944;27;20274;-68
2023/11/11 05:35:51;;;;;;;1.10;1.00;;;14.80;68.10;;;;;;5136659;27;20619;-68
2023/11/11 05:38:16;;;;;;;1.13;0.90;;;14.80;68.10;;;;;;5135629;27;20208;-67
2023/11/11 05:40:42;;;;;;;1.42;1.23;;;14.80;68.10;;;;;;5136745;27;20177;-67
2023/11/11 05:43:08;;;;;;;1.30;1.15;;;14.80;68.10;;;;;;5136335;27;20177;-67
2023/11/11 05:45:34;;;;;;;1.50;1.00;;;14.80;68.20;;;;;;5135688;27;20203;-66
2023/11/11 05:47:59;;;;;;;1.10;1.00;;;14.80;68.10;;;;;;5137151;27;20283;-66
2023/11/11 05:50:25;;;;;;;0.80;0.80;;;14.80;68.10;;;;;;5136616;27;20169;-67
2023/11/11 05:52:51;;;;;;;0.90;0.90;;;14.80;68.20;;;;;;5135745;27;20168;-67
2023/11/11 05:55:17;;;;;;;1.15;0.80;;;14.80;68.10;;;;;;5135905;27;20168;-67
2023/11/11 05:57:42;;;;;;;1.00;0.90;;;14.80;68.10;;;;;;5136292;27;20200;-67
2023/11/11 06:00:13;;;;;;;1.20;1.20;;;14.80;68.10;;;;;;5135103;27;20526;-67
2023/11/11 06:02:39;;;;;;;1.67;1.23;;;14.80;68.10;;;;;;5136499;27;20172;-67
2023/11/11 06:05:05;;;;;;;0.70;0.70;;;14.80;68.10;;;;;;5135168;27;20165;-67
2023/11/11 06:07:30;;;;;;;1.20;0.90;;;14.80;68.10;;;;;;5135643;27;20295;-66
2023/11/11 06:09:56;;;;;;;0.63;0.63;;;14.80;68.10;;;;;;5136203;27;20165;-66
2023/11/11 06:12:22;;;;;;;0.80;0.77;;;14.80;68.00;;;;;;5135733;27;20164;-66
2023/11/11 06:14:49;;;;;;;1.10;0.90;;;14.90;68.00;;;;;;5135246;27;20196;-66
2023/11/11 06:17:14;;;;;;;1.50;0.98;;;14.90;68.00;;;;;;5135748;27;20199;-66
2023/11/11 06:19:40;;;;;;;1.88;0.80;;;15.00;68.00;;;;;;5135817;27;20173;-68
2023/11/11 06:22:07;;;;;;;1.63;0.90;;;15.20;67.80;;;;;;5135237;27;20256;-67
2023/11/11 06:24:32;;;;;;;0.85;0.82;;;15.30;67.50;;;;;;5135866;27;20173;-67
2023/11/11 06:26:58;;;;;;;0.68;0.68;;;15.50;67.30;;;;;;5134880;27;20212;-67
2023/11/11 06:29:23;;;;;;;0.98;0.85;;;15.60;66.90;;;;;;5135482;27;20517;-66
2023/11/11 06:31:52;;;;;;;1.15;0.77;;;15.70;66.70;;;;;;5135818;27;20172;-66
2023/11/11 06:34:19;;;;;;;1.08;0.90;;;15.80;66.40;;;;;;5134432;27;20335;-67
2023/11/11 06:36:44;;;;;;;0.75;0.75;;;16.00;66.20;;;;;;5135588;27;20179;-67
2023/11/11 06:39:12;;;;;;;0.80;0.50;;;16.00;66.00;;;;;;5135253;27;20169;-67
2023/11/11 06:41:38;;;;;;;1.42;0.70;;;16.20;65.60;;;;;;5134778;27;20583;-66
2023/11/11 06:44:05;;;;;;;1.10;0.70;;;16.30;65.30;;;;;;5134955;27;20168;-65
2023/11/11 06:46:30;;;;;;;0.68;0.68;;;16.40;65.10;;;;;;5135424;27;20571;-65
2023/11/11 06:48:57;;;;;;;0.73;0.70;;;16.40;64.80;;;;;;5134531;27;20713;-66
2023/11/11 06:51:23;;;;;;;0.98;0.80;;;16.50;64.80;;;;;;5135189;27;20224;-66
2023/11/11 06:53:49;;;;;;;0.70;0.70;;;16.50;65.00;;;;;;5135326;27;20591;-67
2023/11/11 06:56:15;;;;;;;0.70;0.70;;;16.40;65.00;;;;;;5133976;27;20168;-67
2023/11/11 06:58:41;;;;;;;0.68;0.55;;;16.50;64.90;;;;;;5134961;27;20627;-66
2023/11/11 07:01:08;;;;;;;0.70;0.68;;;16.40;65.00;;;;;;5135004;27;20180;-67
2023/11/11 07:03:35;;;;;;;0.70;0.68;;;16.30;66.00;;;;;;5134152;27;20165;-66
2023/11/11 07:06:01;;;;;;;0.60;0.60;;;16.30;65.50;;;;;;5134684;27;20290;-67
2023/11/11 07:08:30;;;;;;;0.98;0.70;;;16.20;65.60;;;;;;5134772;27;20253;-66
2023/11/11 07:10:56;;;;;;;0.85;0.80;;;16.30;65.60;;;;;;5134000;27;20229;-67
2023/11/11 07:13:21;;;;;;;0.98;0.47;;;16.40;65.30;;;;;;5134402;27;20196;-67
2023/11/11 07:15:47;;;;;;;1.83;0.70;;;16.50;65.20;;;;;;5134592;27;20696;-66
2023/11/11 07:18:13;;;;;;;0.70;0.60;;;16.70;64.80;;;;;;5133883;27;20194;-66
2023/11/11 07:20:39;;;;;;;0.65;0.57;;;16.90;64.30;;;;;;5134715;27;20251;-67
2023/11/11 07:23:08;;;;;;;0.50;0.50;;;17.10;63.90;;;;;;5133614;27;20293;-67
2023/11/11 07:25:34;;;;;;;0.80;0.70;;;17.30;63.40;;;;;;5134685;27;20195;-67
2023/11/11 07:28:00;;;;;;;0.80;0.70;;;17.50;62.80;;;;;;5134367;27;20184;-67
2023/11/11 07:30:26;;;;;;;0.60;0.50;;;17.60;62.40;;;;;;5133819;27;20212;-67
2023/11/11 07:32:57;;;;;;;0.70;0.50;;;17.70;62.20;;;;;;5134509;27;20181;-67
2023/11/11 07:35:22;;;;;;;1.13;0.60;;;17.80;61.90;;;;;;5134209;27;20176;-68
2023/11/11 07:37:49;;;;;;;0.60;0.60;;;17.80;62.70;;;;;;5133660;27;20175;-68
2023/11/11 07:40:15;;;;;;;0.77;0.52;;;17.90;61.80;;;;;;5133997;27;20184;-67
2023/11/11 07:42:41;;;;;;;0.60;0.55;;;17.90;61.90;;;;;;5134153;27;20172;-67
2023/11/11 07:45:08;;;;;;;0.82;0.63;;;17.80;61.80;;;;;;5133356;27;20176;-67
2023/11/11 07:47:38;;;;;;;0.65;0.47;;;17.90;61.90;;;;;;5133873;27;20223;-67
2023/11/11 07:50:05;;;;;;;0.68;0.68;;;17.90;62.00;;;;;;5134098;27;20242;-67
2023/11/11 07:52:30;;;;;;;0.57;0.57;;;17.90;62.00;;;;;;5133336;27;20184;-68
2023/11/11 07:54:58;;;;;;;0.80;0.45;;;17.90;62.00;;;;;;5133985;27;20176;-67
2023/11/11 07:57:25;;;;;;;0.45;0.45;;;17.90;62.00;;;;;;5134023;27;20179;-68
2023/11/11 07:59:51;;;;;;;0.50;0.50;;;17.90;62.00;;;;;;5133355;27;20565;-68
2023/11/11 08:02:16;;;;;;;0.52;0.50;;;17.90;62.10;;;;;;5133812;27;20257;-67
2023/11/11 08:04:42;;;;;;;0.52;0.50;;;17.80;62.30;;;;;;5134141;27;20181;-67
2023/11/11 08:07:10;;;;;;;0.52;0.40;;;17.70;62.50;;;;;;5132756;27;20688;-69
2023/11/11 08:09:39;;;;;;;0.40;0.40;;;17.60;62.70;;;;;;5134144;27;20588;-68
2023/11/11 08:12:05;;;;;;;0.43;0.43;;;17.50;63.20;;;;;;5133776;27;20173;-67
2023/11/11 08:14:30;;;;;;;0.57;0.50;;;17.40;63.30;;;;;;5133024;28;20534;-67
2023/11/11 08:16:57;;;;;;;0.85;0.60;;;17.30;63.60;;;;;;5133982;28;20176;-67
2023/11/11 08:19:23;;;;;;;0.63;0.50;;;17.20;64.00;;;;;;5133017;28;20634;-68
2023/11/11 08:21:49;;;;;;;0.52;0.52;;;17.10;64.20;;;;;;5133797;28;20337;-68
2023/11/11 08:24:14;;;;;;;0.57;0.50;;;17.00;64.40;;;;;;5133495;28;20170;-69
2023/11/11 08:26:40;;;;;;;0.60;0.60;;;17.00;64.40;;;;;;5133203;28;20230;-68
2023/11/11 08:29:05;;;;;;;0.80;0.63;;;17.00;64.40;;;;;;5136262;27;20251;-67
2023/11/11 08:31:31;;;;;;;0.50;0.50;;;17.00;64.50;;;;;;5137178;27;20176;-68
2023/11/11 08:33:57;;;;;;;0.40;0.40;;;17.10;64.50;;;;;;5137249;27;20229;-67
2023/11/11 08:36:24;;;;;;;1.55;0.65;;;17.20;64.50;;;;;;5137692;27;20172;-68
2023/11/11 08:38:53;;;;;;;0.40;0.40;;;17.10;64.40;;;;;;5137833;27;20694;-68
2023/11/11 08:41:18;;;;;;;0.93;0.60;;;17.00;64.40;;;;;;5136936;27;20185;-68
2023/11/11 08:43:44;;;;;;;0.70;0.70;;;17.00;64.50;;;;;;5137802;27;20179;-67
2023/11/11 08:46:10;;;;;;;0.47;0.47;;;16.90;64.80;;;;;;5137116;27;20218;-66
2023/11/11 08:48:40;;;;;;;0.55;0.40;;;16.80;65.20;;;;;;5136778;27;20587;-66
2023/11/11 08:51:11;;;;;;;1.13;0.57;;;16.80;65.60;;;;;;5137230;27;20542;-66
2023/11/11 08:53:37;;;;;;;0.88;0.60;;;16.80;65.80;;;;;;5137727;27;20627;-68
2023/11/11 08:56:03;;;;;;;0.52;0.47;;;16.70;65.80;;;;;;5136785;27;20184;-68
2023/11/11 08:58:29;;;;;;;0.60;0.30;;;16.80;65.70;;;;;;5137501;27;20177;-68
2023/11/11 09:00:56;;;;;;;0.77;0.60;;;16.80;65.70;;;;;;5137484;27;20217;-66
2023/11/11 09:03:21;;;;;;;0.55;0.45;;;16.80;65.50;;;;;;5136210;27;20169;-67
2023/11/11 09:05:47;;;;;;;1.10;0.65;;;16.90;65.40;;;;;;5137244;27;20227;-67
2023/11/11 09:08:12;;;;;;;0.47;0.40;;;16.90;65.30;;;;;;5136897;27;20623;-67
2023/11/11 09:10:39;;;;;;;0.40;0.40;;;16.90;65.40;;;;;;5136560;27;20172;-68
2023/11/11 09:13:11;;;;;;;0.50;0.47;;;16.90;65.40;;;;;;5136940;27;20176;-67
2023/11/11 09:15:40;;;;;;;0.38;0.30;;;17.00;65.60;;;;;;5136403;27;20196;-67
2023/11/11 09:18:06;;;;;;;0.50;0.50;;;16.90;65.70;;;;;;5136763;27;20540;-67
2023/11/11 09:20:34;;;;;;;0.40;0.40;;;16.90;65.80;;;;;;5137249;27;20177;-67
2023/11/11 09:23:00;;;;;;;0.65;0.50;;;16.80;65.90;;;;;;5136174;27;20237;-67
2023/11/11 09:25:25;;;;;;;0.70;0.70;;;16.80;66.10;;;;;;5136994;27;20572;-67
2023/11/11 09:27:53;;;;;;;0.73;0.68;;;16.80;66.20;;;;;;5136967;27;20180;-67
2023/11/11 09:30:22;;;;;;;0.40;0.40;;;16.80;66.00;;;;;;5135856;27;20184;-67
2023/11/11 09:32:47;;;;;;;1.50;0.47;;;16.80;66.10;;;;;;5136727;27;20183;-67
2023/11/11 09:35:16;;;;;;;0.60;0.60;;;16.70;66.40;;;;;;5118296;27;20168;-67
2023/11/11 09:37:41;;;;;;;0.30;0.30;;;16.60;66.50;;;;;;5136109;27;20173;-67
2023/11/11 09:40:11;;;;;;;0.40;0.40;;;16.60;66.60;;;;;;5134953;27;20165;-69
2023/11/11 09:42:37;;;;;;;0.40;0.40;;;16.60;66.70;;;;;;5136578;27;20173;-67
2023/11/11 09:45:04;;;;;;;0.90;0.77;;;16.60;66.80;;;;;;5135342;27;20542;-67
2023/11/11 09:47:32;;;;;;;0.40;0.40;;;16.60;66.70;;;;;;5136319;27;20215;-67
2023/11/11 09:50:00;;;;;;;1.38;0.77;;;16.50;66.70;;;;;;5136569;27;20584;-67
2023/11/11 09:52:27;;;;;;;0.60;0.57;;;16.50;66.80;;;;;;5117781;27;20630;-67
2023/11/11 09:54:53;;;;;;;0.65;0.50;;;16.50;67.00;;;;;;5117974;27;20578;-67
2023/11/11 09:57:20;;;;;;;1.13;0.63;;;16.50;67.00;;;;;;5117627;27;20248;-68
2023/11/11 09:59:46;;;;;;;0.63;0.50;;;16.50;67.00;;;;;;5135393;27;20199;-67
2023/11/11 10:02:11;;;;;;;1.02;0.52;;;16.50;66.80;;;;;;5100871;27;20614;-67
2023/11/11 10:04:40;;;;;;;0.40;0.30;;;16.50;66.90;;;;;;5118069;27;20176;-67
2023/11/11 10:07:05;;;;;;;1.00;0.55;;;16.40;66.80;;;;;;5116745;27;20295;-67
2023/11/11 10:09:31;;;;;;;0.50;0.50;;;16.50;66.70;;;;;;5136189;27;20294;-68
2023/11/11 10:11:56;;;;;;;0.50;0.50;;;16.40;66.70;;;;;;5135481;27;20177;-67
2023/11/11 10:14:22;;;;;;;0.50;0.50;;;16.40;66.70;;;;;;5135665;27;20172;-67
2023/11/11 10:16:52;;;;;;;0.60;0.50;;;16.40;66.80;;;;;;5117529;27;20165;-67
2023/11/11 10:19:18;;;;;;;0.40;0.40;;;16.30;66.80;;;;;;5135093;27;20176;-68
2023/11/11 10:21:43;;;;;;;0.50;0.50;;;16.40;66.80;;;;;;5135855;27;20541;-67
2023/11/11 10:24:09;;;;;;;0.82;0.52;;;16.30;66.70;;;;;;5117213;27;20327;-67
2023/11/11 10:26:35;;;;;;;0.40;0.40;;;16.30;66.70;;;;;;5134830;27;20208;-69
2023/11/11 10:29:03;;;;;;;0.90;0.45;;;16.30;66.70;;;;;;5135358;27;20175;-69
2023/11/11 10:31:31;;;;;;;0.70;0.70;;;16.30;66.60;;;;;;5117984;27;20176;-68
2023/11/11 10:33:57;;;;;;;0.50;0.50;;;16.30;66.60;;;;;;5099581;27;20168;-67
2023/11/11 10:36:23;;;;;;;0.65;0.65;;;16.40;66.60;;;;;;5135462;27;20168;-68
2023/11/11 10:38:48;;;;;;;0.80;0.60;;;16.40;66.50;;;;;;5135596;27;20169;-67
2023/11/11 10:41:14;;;;;;;2.00;0.93;;;16.40;66.30;;;;;;5134514;27;20188;-67
2023/11/11 10:43:40;;;;;;;0.75;0.50;;;16.40;66.30;;;;;;5116988;27;20176;-67
2023/11/11 10:46:05;;;;;;;1.20;0.75;;;16.30;66.20;;;;;;5116778;27;20212;-66
2023/11/11 10:48:31;;;;;;;0.80;0.55;;;16.30;66.30;;;;;;5134550;27;20292;-66
2023/11/11 10:50:56;;;;;;;0.65;0.50;;;16.30;66.30;;;;;;5099550;27;20212;-67
2023/11/11 10:53:24;;;;;;;1.52;0.80;;;16.30;66.30;;;;;;5116760;27;20635;-67
2023/11/11 10:55:50;;;;;;;0.60;0.60;;;16.40;66.00;;;;;;5134507;27;20212;-68
2023/11/11 10:58:17;;;;;;;1.00;0.60;;;16.40;66.30;;;;;;5116699;27;20172;-68
2023/11/11 11:00:44;;;;;;;0.85;0.65;;;16.40;66.30;;;;;;5135253;27;20188;-68
2023/11/11 11:03:10;;;;;;;1.42;0.93;;;16.40;66.30;;;;;;5115521;27;20212;-68
2023/11/11 11:05:56;;;;;;;1.00;0.70;;;16.40;66.20;;;;;;5099515;27;20264;-67
2023/11/11 11:08:41;;;;;;;0.88;0.50;;;16.40;66.20;;;;;;5115518;27;20185;-67
2023/11/11 11:11:15;;;;;;;0.70;0.60;;;16.40;66.10;;;;;;5116449;27;20180;-67
2023/11/11 11:13:40;;;;;;;0.70;0.63;;;16.50;66.00;;;;;;5116656;27;20184;-67
2023/11/11 11:16:06;;;;;;;1.05;0.82;;;16.60;66.00;;;;;;5115395;27;20172;-67
2023/11/11 11:18:32;;;;;;;1.63;0.82;;;16.50;66.10;;;;;;5116639;27;20175;-67
2023/11/11 11:20:58;;;;;;;0.73;0.73;;;16.40;66.20;;;;;;5134319;27;20243;-67
2023/11/11 11:23:23;;;;;;;0.90;0.60;;;16.40;66.30;;;;;;5115510;27;20188;-67
2023/11/11 11:25:50;;;;;;;1.15;0.60;;;16.30;66.40;;;;;;5134671;27;20201;-67
2023/11/11 11:28:22;;;;;;;0.70;0.70;;;16.30;66.40;;;;;;5116382;27;20172;-67
2023/11/11 11:30:58;;;;;;;0.70;0.70;;;16.30;66.40;;;;;;5134085;27;20169;-67
2023/11/11 11:33:33;;;;;;;1.67;1.05;;;16.30;66.50;;;;;;5134439;27;20180;-68
2023/11/11 11:36:01;;;;;;;0.75;0.60;;;16.30;66.50;;;;;;5116386;27;20253;-68
2023/11/11 11:38:38;;;;;;;1.55;0.80;;;16.30;66.40;;;;;;5133839;27;20169;-68
2023/11/11 11:41:22;;;;;;;0.85;0.63;;;16.40;66.20;;;;;;5133952;27;20634;-67
2023/11/11 11:43:54;;;;;;;1.25;0.70;;;16.50;66.10;;;;;;5133517;27;20224;-67
2023/11/11 11:46:21;;;;;;;1.00;0.70;;;16.40;66.00;;;;;;5134004;27;20200;-67
2023/11/11 11:48:47;;;;;;;1.13;0.73;;;16.40;66.30;;;;;;5134177;27;20224;-67
2023/11/11 11:51:18;;;;;;;2.08;0.98;;;16.30;66.40;;;;;;5133117;27;20606;-67
2023/11/11 11:53:45;;;;;;;1.35;0.65;;;16.40;66.40;;;;;;5134238;27;20180;-67
2023/11/11 11:56:25;;;;;;;1.27;1.08;;;16.40;66.10;;;;;;5133799;27;20200;-67
2023/11/11 11:58:51;;;;;;;0.52;0.52;;;16.40;66.00;;;;;;5133551;27;20179;-68
2023/11/11 12:01:27;;;;;;;1.15;0.70;;;16.40;66.20;;;;;;5133681;27;20172;-67
2023/11/11 12:03:53;;;;;;;0.93;0.80;;;16.40;66.20;;;;;;5133164;27;20657;-66
2023/11/11 12:06:19;;;;;;;0.82;0.77;;;16.50;67.00;;;;;;5132976;27;20208;-67
2023/11/11 12:08:49;;;;;;;0.88;0.70;;;16.50;66.80;;;;;;5134063;27;20534;-67
2023/11/11 12:11:30;;;;;;;1.33;0.75;;;16.50;66.00;;;;;;5115380;27;20172;-68
2023/11/11 12:13:56;;;;;;;0.70;0.70;;;16.40;66.00;;;;;;5117295;27;20177;-67
2023/11/11 12:16:41;;;;;;;1.40;0.60;;;16.50;66.10;;;;;;5133767;27;20229;-66
2023/11/11 12:19:14;;;;;;;1.55;0.75;;;16.50;66.00;;;;;;5132854;28;20176;-70
2023/11/11 12:21:42;;;;;;;0.70;0.60;;;16.50;65.90;;;;;;5133757;28;20191;-68
2023/11/11 12:24:09;;;;;;;0.80;0.70;;;16.50;65.90;;;;;;5133648;28;20247;-68
2023/11/11 12:26:38;;;;;;;1.50;0.80;;;16.50;65.90;;;;;;5132943;28;20749;-67
2023/11/11 12:29:04;;;;;;;1.25;0.70;;;16.50;65.90;;;;;;5133644;28;20184;-67
2023/11/11 12:31:30;;;;;;;0.70;0.60;;;16.50;65.90;;;;;;5115582;28;20185;-68
2023/11/11 12:33:56;;;;;;;0.93;0.77;;;16.50;65.80;;;;;;5132880;28;20191;-67
2023/11/11 12:36:21;;;;;;;0.50;0.50;;;16.50;65.80;;;;;;5098252;28;20172;-67
2023/11/11 12:38:47;;;;;;;1.00;0.80;;;16.50;65.80;;;;;;5098518;28;20168;-67
2023/11/11 12:41:14;;;;;;;1.10;0.60;;;16.50;65.80;;;;;;5132738;28;20176;-67
2023/11/11 12:43:40;;;;;;;0.68;0.68;;;16.50;65.70;;;;;;5133375;28;20179;-66
2023/11/11 12:46:16;;;;;;;0.68;0.60;;;16.50;65.70;;;;;;5114864;28;20205;-67